WSAP/QPG METAR and TAF weather

Enter ICAO airport designator
Station Type Date Time Source
WSAP METAR 2020/02/16 20:00 UTC NOAA

WSAP 162000Z 05005KT 9999 FEW018 BKN150 27/24 Q1011


Station Type Date Time Source
WSAP Decoded METAR 2020/02/16 20:00 UTC NOAA

Singapore / Paya Lebar, Singapore (WSAP) 01-22N 103-55E 32M
Feb 16, 2020 - 03:00 PM EST / 2020.02.16 2000 UTC
Wind: from the NE (050 degrees) at 6 MPH (5 KT):0
Visibility: greater than 7 mile(s):0
Sky conditions: mostly cloudy
Temperature: 80 F (27 C)
Dew Point: 75 F (24 C)
Relative Humidity: 83%
Pressure (altimeter): 29.85 in. Hg (1011 hPa)
ob: WSAP 162000Z 05005KT 9999 FEW018 BKN150 27/24 Q1011
cycle: 20

Station Type Date Time Source
WSAP TAF 2020/02/16 18:08 UTC NOAA

TAF WSAP 161700Z 1618/1800 03007KT 9999 FEW015 SCT020

Example: see airport list